.
WxDataArchive / Data Records for 2007-03-16
2007-03-15 March 2007 2007-03-17

Data Records for Friday, 16 March 2007

Time	Temp	Chill	HIndex	Humid	Dewpt	 Wind 	HiWind	WindDir	Rain 	Barom 
-----	----	-----	------	-----	-----	------	------	-------	-----	----- 
00:00	28.5	23.0	28.5	66	18.6	5	11	112	0.00	30.214 
00:05	28.4	23.9	28.4	67	18.9	4	11	112	0.00	30.214 
00:10	28.2	23.7	28.2	67	18.7	4	10	112	0.00	30.214 
00:15	28.2	28.2	28.2	67	18.7	3	8	112	0.00	30.211 
00:20	28.1	23.6	28.1	67	18.6	4	13	112	0.00	30.211 
00:25	28.1	23.6	28.1	66	18.2	4	11	112	0.00	30.209 
00:30	27.9	23.3	27.9	65	17.7	4	10	112	0.00	30.209 
00:35	27.9	27.9	27.9	65	17.7	2	6	90	0.00	30.203 
00:40	27.8	23.2	27.8	66	17.9	4	16	112	0.00	30.201 
00:45	27.8	27.8	27.8	66	17.9	2	7	22	0.00	30.209 
00:50	27.8	27.8	27.8	65	17.6	2	7	90	0.00	30.210 
00:55	27.6	27.6	27.6	65	17.4	2	5	112	0.00	30.210 
01:00	27.6	27.6	27.6	67	18.1	1	5	90	0.00	30.206 
01:05	27.5	27.5	27.5	65	17.3	2	7	45	0.00	30.203 
01:10	27.3	27.3	27.3	66	17.5	1	4	90	0.00	30.202 
01:15	27.2	27.2	27.2	66	17.4	2	9	112	0.00	30.202 
01:20	27.2	27.2	27.2	66	17.4	2	7	90	0.00	30.202 
01:25	27.0	27.0	27.0	66	17.2	2	6	90	0.00	30.202 
01:30	27.0	27.0	27.0	65	16.8	3	7	112	0.00	30.202 
01:35	26.9	26.9	26.9	66	17.1	3	9	112	0.00	30.201 
01:40	26.9	26.9	26.9	66	17.1	2	5	112	0.00	30.203 
01:45	26.7	26.7	26.7	68	17.6	2	4	112	0.00	30.201 
01:50	26.6	26.6	26.6	67	17.1	1	4	45	0.00	30.199 
01:55	26.4	26.4	26.4	66	16.6	2	4	68	0.00	30.198 
02:00	26.4	26.4	26.4	67	17.0	1	4	22	0.00	30.198 
02:05	26.3	26.3	26.3	67	16.9	1	3	112	0.00	30.197 
02:10	26.1	26.1	26.1	67	16.7	1	4	45	0.00	30.197 
02:15	26.1	26.1	26.1	66	16.3	1	5	112	0.00	30.194 
02:20	26.1	26.1	26.1	67	16.7	1	4	135	0.00	30.196 
02:25	26.0	26.0	26.0	67	16.6	1	4	45	0.00	30.195 
02:30	26.0	26.0	26.0	68	16.9	0	2	68	0.00	30.186 
02:35	25.8	25.8	25.8	68	16.7	1	4	68	0.00	30.184 
02:40	25.8	25.8	25.8	67	16.4	1	5	45	0.00	30.182 
02:45	25.8	25.8	25.8	68	16.7	1	5	90	0.00	30.179 
02:50	25.7	25.7	25.7	68	16.6	1	3	68	0.00	30.177 
02:55	25.7	25.7	25.7	69	17.0	1	4	45	0.00	30.176 
03:00	25.6	25.6	25.6	69	16.9	1	3	45	0.00	30.179 
03:05	25.6	25.6	25.6	70	17.2	0	3	90	0.00	30.177 
03:10	25.4	25.4	25.4	70	17.0	0	2	90	0.00	30.183 
03:15	25.4	25.4	25.4	70	17.0	1	3	90	0.00	30.179 
03:20	25.4	25.4	25.4	70	17.0	1	4	112	0.00	30.178 
03:25	25.4	25.4	25.4	70	17.0	1	4	112	0.00	30.172 
03:30	25.4	25.4	25.4	70	17.0	2	5	90	0.00	30.169 
03:35	25.3	25.3	25.3	71	17.2	1	3	112	0.00	30.167 
03:40	25.3	25.3	25.3	72	17.6	0	3	112	0.00	30.165 
03:45	25.3	25.3	25.3	72	17.6	1	3	90	0.00	30.163 
03:50	25.1	25.1	25.1	72	17.4	1	2	90	0.00	30.161 
03:55	25.1	25.1	25.1	72	17.4	1	5	112	0.00	30.156 
04:00	25.3	25.3	25.3	72	17.6	2	4	112	0.00	30.155 
04:05	25.3	25.3	25.3	72	17.6	1	5	45	0.00	30.154 
04:10	25.3	25.3	25.3	73	17.9	1	3	90	0.00	30.152 
04:15	25.1	25.1	25.1	73	17.7	1	5	68	0.00	30.145 
04:20	25.1	25.1	25.1	73	17.7	1	2	68	0.00	30.145 
04:25	25.1	25.1	25.1	73	17.7	0	3	112	0.00	30.145 
04:30	25.1	25.1	25.1	73	17.7	0	2	135	0.00	30.143 
04:35	25.0	25.0	25.0	74	17.9	0	2	135	0.00	30.146 
04:40	25.0	25.0	25.0	74	17.9	0	1	135	0.00	30.144 
04:45	24.8	24.8	24.8	74	17.7	0	2	338	0.00	30.144 
04:50	24.8	24.8	24.8	74	17.7	0	1	338	0.00	30.144 
04:55	24.7	24.7	24.7	74	17.6	0	1	338	0.00	30.144 
05:00	24.7	24.7	24.7	75	17.9	0	1	338	0.00	30.142 
05:05	24.7	24.7	24.7	75	17.9	0	3	112	0.00	30.145 
05:10	24.7	24.7	24.7	75	17.9	0	2	338	0.00	30.144 
05:15	24.7	24.7	24.7	74	17.6	0	4	22	0.00	30.148 
05:20	24.8	24.8	24.8	74	17.7	0	4	22	0.00	30.148 
05:25	24.8	24.8	24.8	74	17.7	1	3	45	0.00	30.147 
05:30	25.0	25.0	25.0	74	17.9	0	2	0	0.00	30.146 
05:35	25.0	25.0	25.0	74	17.9	1	3	0	0.00	30.143 
05:40	25.1	25.1	25.1	74	18.0	1	3	0	0.00	30.144 
05:45	25.1	25.1	25.1	74	18.0	1	3	0	0.00	30.143 
05:50	25.3	25.3	25.3	74	18.2	1	4	0	0.00	30.143 
05:55	25.3	25.3	25.3	74	18.2	0	4	45	0.00	30.142 
06:00	25.1	25.1	25.1	75	18.3	0	1	45	0.00	30.142 
06:05	25.1	25.1	25.1	75	18.3	1	4	45	0.00	30.148 
06:10	25.1	25.1	25.1	75	18.3	0	2	22	0.00	30.148 
06:15	25.0	25.0	25.0	74	17.9	0	2	22	0.00	30.151 
06:20	25.0	25.0	25.0	74	17.9	1	3	0	0.00	30.151 
06:25	24.8	24.8	24.8	74	17.7	0	1	338	0.00	30.155 
06:30	24.8	24.8	24.8	74	17.7	0	3	338	0.00	30.155 
06:35	24.8	24.8	24.8	74	17.7	0	2	22	0.00	30.157 
06:40	24.8	24.8	24.8	74	17.7	0	2	0	0.00	30.157 
06:45	24.8	24.8	24.8	74	17.7	0	3	0	0.00	30.156 
06:50	24.8	24.8	24.8	74	17.7	1	4	0	0.00	30.156 
06:55	24.8	24.8	24.8	74	17.7	1	3	22	0.00	30.154 
07:00	24.8	24.8	24.8	75	18.0	0	2	22	0.00	30.155 
07:05	24.8	24.8	24.8	74	17.7	0	4	22	0.00	30.158 
07:10	25.0	25.0	25.0	74	17.9	0	3	338	0.00	30.159 
07:15	25.0	25.0	25.0	74	17.9	1	2	0	0.00	30.160 
07:20	25.1	25.1	25.1	73	17.7	1	4	45	0.00	30.158 
07:25	25.3	25.3	25.3	73	17.9	1	2	338	0.00	30.159 
07:30	25.3	25.3	25.3	73	17.9	0	3	338	0.00	30.161 
07:35	25.3	25.3	25.3	73	17.9	0	2	338	0.00	30.162 
07:40	25.4	25.4	25.4	73	18.0	1	3	22	0.00	30.160 
07:45	25.4	25.4	25.4	73	18.0	1	5	22	0.00	30.160 
07:50	25.6	25.6	25.6	73	18.2	1	3	0	0.00	30.159 
07:55	25.6	25.6	25.6	73	18.2	1	6	0	0.00	30.157 
08:00	25.7	25.7	25.7	72	17.9	1	4	0	0.00	30.158 
08:05	25.8	25.8	25.8	72	18.0	1	4	22	0.00	30.160 
08:10	26.0	26.0	26.0	71	17.9	1	5	338	0.00	30.160 
08:15	26.3	26.3	26.3	71	18.2	1	4	0	0.00	30.161 
08:20	26.9	26.9	26.9	70	18.4	1	4	0	0.00	30.162 
08:25	27.2	27.2	27.2	70	18.7	2	6	22	0.00	30.163 
08:30	27.5	27.5	27.5	68	18.3	1	6	338	0.00	30.162 
08:35	27.8	27.8	27.8	69	19.0	1	5	22	0.00	30.163 
08:40	28.1	28.1	28.1	68	18.9	2	7	0	0.00	30.165 
08:45	28.4	28.4	28.4	67	18.9	2	5	338	0.00	30.164 
08:50	28.5	28.5	28.5	66	18.6	2	5	22	0.00	30.167 
08:55	28.5	28.5	28.5	66	18.6	2	9	0	0.00	30.166 
09:00	28.7	28.7	28.7	67	19.2	2	6	315	0.00	30.168 
09:05	29.0	29.0	29.0	67	19.4	2	6	338	0.00	30.169 
09:10	29.5	29.5	29.5	66	19.6	2	5	112	0.00	30.173 
09:15	29.5	29.5	29.5	65	19.2	2	7	22	0.00	30.169 
09:20	29.7	29.7	29.7	65	19.4	2	6	22	0.00	30.170 
09:25	29.5	29.5	29.5	65	19.2	2	6	338	0.00	30.170 
09:30	29.8	29.8	29.8	65	19.5	2	5	22	0.00	30.170 
09:35	29.8	29.8	29.8	65	19.5	2	7	22	0.00	30.171 
09:40	29.7	29.7	29.7	65	19.4	2	6	22	0.00	30.167 
09:45	29.5	29.5	29.5	66	19.6	3	7	0	0.00	30.167 
09:50	29.8	29.8	29.8	65	19.5	2	6	22	0.00	30.164 
09:55	30.3	30.3	30.3	66	20.3	2	6	338	0.00	30.162 
10:00	30.0	30.0	30.0	65	19.7	2	6	0	0.00	30.161 
10:05	29.7	29.7	29.7	66	19.8	2	6	0	0.00	30.166 
10:10	29.5	29.5	29.5	66	19.6	2	5	315	0.00	30.164 
10:15	29.4	29.4	29.4	66	19.5	2	4	338	0.00	30.166 
10:20	29.4	29.4	29.4	65	19.1	2	7	315	0.00	30.165 
10:25	29.7	29.7	29.7	68	20.5	2	5	338	0.00	30.160 
10:30	30.4	30.4	30.4	66	20.4	1	4	0	0.00	30.162 
10:35	30.9	30.9	30.9	63	19.8	3	7	0	0.00	30.164 
10:40	30.0	30.0	30.0	64	19.3	2	7	315	0.00	30.162 
10:45	30.0	30.0	30.0	65	19.7	2	5	338	0.00	30.162 
10:50	30.3	30.3	30.3	65	20.0	2	7	22	0.00	30.161 
10:55	30.6	30.6	30.6	65	20.3	2	6	45	0.00	30.159 
11:00	30.7	30.7	30.7	65	20.3	1	3	338	0.00	30.158 
11:05	30.9	30.9	30.9	65	20.5	1	4	22	0.00	30.157 
11:10	30.9	30.9	30.9	62	19.4	1	5	338	0.00	30.159 
11:15	31.5	31.5	31.5	65	21.1	1	6	315	0.00	30.158 
11:20	31.6	31.6	31.6	62	20.1	1	5	270	0.00	30.159 
11:25	31.8	31.8	31.8	62	20.3	1	4	292	0.00	30.159 
11:30	32.7	32.7	32.7	62	21.1	1	4	338	0.00	30.157 
11:35	32.4	32.4	32.4	60	20.1	2	7	338	0.00	30.157 
11:40	32.4	32.4	32.4	61	20.5	2	5	22	0.00	30.159 
11:45	32.9	32.9	32.9	62	21.3	2	6	338	0.00	30.158 
11:50	33.5	33.5	33.5	62	21.9	1	4	68	0.00	30.157 
11:55	34.7	34.7	34.7	61	22.6	1	3	45	0.00	30.155 
12:00	35.0	35.0	35.0	58	21.7	2	7	22	0.00	30.152 
12:05	34.9	34.9	34.9	57	21.2	2	10	292	0.00	30.150 
12:10	35.2	35.2	35.2	59	22.3	2	5	45	0.00	30.148 
12:15	35.5	35.5	35.5	59	22.6	2	6	22	0.00	30.145 
12:20	35.8	35.8	35.8	58	22.5	2	5	45	0.00	30.141 
12:25	35.6	35.6	35.6	58	22.3	2	9	338	0.00	30.140 
12:30	35.9	35.9	35.9	60	23.4	2	6	338	0.00	30.139 
12:35	36.0	36.0	36.0	56	21.8	2	6	338	0.00	30.139 
12:40	36.2	36.2	36.2	57	22.5	1	4	22	0.00	30.139 
12:45	36.2	36.2	36.2	56	22.0	3	12	22	0.00	30.135 
12:50	36.5	36.5	36.5	56	22.3	2	4	22	0.00	30.131 
12:55	36.6	36.6	36.6	54	21.5	2	5	338	0.00	30.131 
13:00	36.6	36.6	36.6	56	22.4	2	4	0	0.00	30.127 
13:05	37.2	37.2	37.2	56	23.0	2	4	45	0.00	30.127 
13:10	37.2	37.2	37.2	52	21.2	3	9	90	0.00	30.126 
13:15	37.5	37.5	37.5	54	22.4	2	5	45	0.00	30.124 
13:20	37.9	37.9	37.9	50	20.9	3	8	45	0.00	30.120 
13:25	37.9	37.9	37.9	52	21.9	2	6	45	0.00	30.116 
13:30	38.3	38.3	38.3	52	22.2	2	10	90	0.00	30.110 
13:35	38.0	38.0	38.0	48	20.1	3	6	45	0.00	30.110 
13:40	38.2	38.2	38.2	48	20.3	2	7	338	0.00	30.109 
13:45	38.3	38.3	38.3	52	22.2	1	4	0	0.00	30.108 
13:50	38.8	38.8	38.8	51	22.2	2	5	22	0.00	30.108 
13:55	39.1	39.1	39.1	55	24.3	2	6	45	0.00	30.105 
14:00	38.9	38.9	38.9	47	20.4	2	6	22	0.00	30.101 
14:05	38.9	38.9	38.9	48	20.9	2	6	45	0.00	30.097 
14:10	39.1	39.1	39.1	47	20.6	2	6	22	0.00	30.095 
14:15	39.2	39.2	39.2	49	21.7	1	5	22	0.00	30.094 
14:20	39.3	39.3	39.3	50	22.2	3	14	45	0.00	30.093 
14:25	39.2	39.2	39.2	46	20.2	2	5	68	0.00	30.094 
14:30	39.3	39.3	39.3	49	21.8	1	3	292	0.00	30.092 
14:35	39.9	39.9	39.9	46	20.8	1	4	0	0.00	30.089 
14:40	40.2	40.2	40.2	46	21.1	3	7	45	0.00	30.088 
14:45	40.2	40.2	40.2	46	21.1	1	5	22	0.00	30.088 
14:50	40.2	40.2	40.2	47	21.6	1	6	338	0.00	30.085 
14:55	40.5	40.5	40.5	47	21.9	1	5	22	0.00	30.087 
15:00	40.6	40.6	40.6	44	20.4	1	4	45	0.00	30.088 
15:05	40.6	40.6	40.6	44	20.4	1	4	112	0.00	30.083 
15:10	40.6	40.6	40.6	44	20.4	2	7	270	0.00	30.080 
15:15	41.1	41.1	41.1	44	20.9	1	3	22	0.00	30.081 
15:20	41.3	41.3	41.3	44	21.0	2	6	0	0.00	30.081 
15:25	40.9	40.9	40.9	42	19.6	2	7	315	0.00	30.080 
15:30	41.2	41.2	41.2	41	19.3	1	5	0	0.00	30.079 
15:35	41.1	41.1	41.1	42	19.8	2	6	68	0.00	30.080 
15:40	41.1	41.1	41.1	43	20.3	1	4	22	0.00	30.082 
15:45	40.9	40.9	40.9	41	19.0	2	5	45	0.00	30.083 
15:50	40.3	40.3	40.3	40	17.9	2	4	315	0.00	30.080 
15:55	40.5	40.5	40.5	42	19.2	2	10	22	0.00	30.079 
16:00	40.5	40.5	40.5	42	19.2	2	5	22	0.00	30.079 
16:05	40.5	40.5	40.5	42	19.2	1	5	90	0.00	30.080 
16:10	40.5	40.5	40.5	40	18.1	2	5	315	0.00	30.082 
16:15	40.3	40.3	40.3	38	16.7	2	7	270	0.00	30.079 
16:20	40.2	40.2	40.2	39	17.2	2	7	338	0.00	30.082 
16:25	40.1	40.1	40.1	37	15.9	2	4	315	0.00	30.081 
16:30	40.3	40.3	40.3	40	17.9	2	4	22	0.00	30.080 
16:35	40.2	40.2	40.2	38	16.6	2	5	0	0.00	30.083 
16:40	40.1	40.1	40.1	40	17.7	1	4	338	0.00	30.083 
16:45	40.2	40.2	40.2	37	16.0	1	5	22	0.00	30.087 
16:50	40.1	40.1	40.1	39	17.2	1	4	0	0.00	30.087 
16:55	39.9	39.9	39.9	38	16.4	1	6	22	0.00	30.091 
17:00	39.6	39.6	39.6	39	16.7	2	5	338	0.00	30.090 
17:05	39.3	39.3	39.3	39	16.4	2	4	338	0.00	30.090 
17:10	39.5	39.5	39.5	40	17.2	1	4	315	0.00	30.092 
17:15	39.5	39.5	39.5	40	17.2	2	6	22	0.00	30.093 
17:20	39.2	39.2	39.2	37	15.1	2	6	22	0.00	30.093 
17:25	39.2	39.2	39.2	39	16.3	1	5	0	0.00	30.093 
17:30	39.1	39.1	39.1	41	17.4	1	4	0	0.00	30.095 
17:35	38.9	38.9	38.9	41	17.2	2	6	22	0.00	30.095 
17:40	38.8	38.8	38.8	40	16.6	1	4	22	0.00	30.098 
17:45	38.6	38.6	38.6	40	16.4	1	5	315	0.00	30.099 
17:50	38.3	38.3	38.3	42	17.2	1	5	45	0.00	30.098 
17:55	38.0	38.0	38.0	42	17.0	1	3	22	0.00	30.102 
18:00	37.6	37.6	37.6	42	16.6	0	4	0	0.00	30.103 
18:05	37.5	37.5	37.5	43	17.1	1	3	90	0.00	30.105 
18:10	37.0	37.0	37.0	42	16.1	0	3	68	0.00	30.107 
18:15	37.0	37.0	37.0	42	16.1	1	4	45	0.00	30.108 
18:20	36.9	36.9	36.9	44	17.0	1	5	90	0.00	30.110 
18:25	36.8	36.8	36.8	42	15.9	1	4	45	0.00	30.111 
18:30	36.6	36.6	36.6	42	15.7	1	3	22	0.00	30.113 
18:35	36.5	36.5	36.5	43	16.2	0	2	0	0.00	30.114 
18:40	36.3	36.3	36.3	44	16.5	0	1	0	0.00	30.119 
18:45	36.2	36.2	36.2	45	16.9	0	2	0	0.00	30.121 
18:50	35.9	35.9	35.9	44	16.1	0	2	0	0.00	30.123 
18:55	35.8	35.8	35.8	46	17.1	0	1	0	0.00	30.124 
19:00	35.6	35.6	35.6	46	16.9	0	1	0	0.00	30.124 
19:05	35.5	35.5	35.5	46	16.8	0	3	338	0.00	30.123 
19:10	35.3	35.3	35.3	46	16.6	0	2	338	0.00	30.126 
19:15	35.2	35.2	35.2	46	16.5	0	1	338	0.00	30.126 
19:20	35.0	35.0	35.0	46	16.3	0	2	338	0.00	30.128 
19:25	35.0	35.0	35.0	46	16.3	0	2	338	0.00	30.129 
19:30	34.9	34.9	34.9	46	16.2	0	1	315	0.00	30.130 
19:35	34.7	34.7	34.7	46	16.1	0	2	315	0.00	30.130 
19:40	34.6	34.6	34.6	47	16.5	0	2	315	0.00	30.132 
19:45	34.3	34.3	34.3	47	16.2	0	1	315	0.00	30.134 
19:50	34.1	34.1	34.1	48	16.5	0	1	315	0.00	30.133 
19:55	33.8	33.8	33.8	49	16.7	0	1	315	0.00	30.134 
20:00	33.7	33.7	33.7	50	17.1	0	1	315	0.00	30.136 
20:05	33.4	33.4	33.4	50	16.8	0	2	315	0.00	30.135 
20:10	33.2	33.2	33.2	50	16.6	0	2	315	0.00	30.135 
20:15	33.2	33.2	33.2	50	16.6	0	1	315	0.00	30.132 
20:20	33.1	33.1	33.1	50	16.5	0	1	315	0.00	30.132 
20:25	32.9	32.9	32.9	51	16.8	0	1	315	0.00	30.132 
20:30	32.7	32.7	32.7	50	16.1	0	1	315	0.00	30.132 
20:35	32.7	32.7	32.7	50	16.1	0	1	315	0.00	30.135 
20:40	32.5	32.5	32.5	51	16.4	0	2	315	0.00	30.135 
20:45	32.5	32.5	32.5	49	15.5	0	2	292	0.00	30.134 
20:50	32.5	32.5	32.5	48	15.0	0	2	338	0.00	30.134 
20:55	32.4	32.4	32.4	47	14.4	0	2	22	0.00	30.135 
21:00	32.4	32.4	32.4	48	14.9	1	3	90	0.00	30.133 
21:05	32.2	32.2	32.2	47	14.3	0	3	338	0.00	30.131 
21:10	32.1	32.1	32.1	47	14.2	0	2	0	0.00	30.131 
21:15	31.9	31.9	31.9	49	14.9	0	2	338	0.00	30.131 
21:20	31.8	31.8	31.8	49	14.8	0	1	338	0.00	30.131 
21:25	31.5	31.5	31.5	49	14.6	0	3	338	0.00	30.134 
21:30	31.3	31.3	31.3	50	14.8	0	3	270	0.00	30.136 
21:35	31.0	31.0	31.0	50	14.6	0	2	270	0.00	30.139 
21:40	30.9	30.9	30.9	50	14.5	0	1	270	0.00	30.139 
21:45	30.7	30.7	30.7	51	14.7	0	1	270	0.00	30.141 
21:50	30.6	30.6	30.6	51	14.6	0	2	270	0.00	30.141 
21:55	30.4	30.4	30.4	52	14.9	0	1	270	0.00	30.141 
22:00	30.3	30.3	30.3	54	15.7	0	2	270	0.00	30.140 
22:05	30.3	30.3	30.3	55	16.1	1	2	270	0.00	30.143 
22:10	30.1	30.1	30.1	55	15.9	0	2	270	0.00	30.142 
22:15	30.0	30.0	30.0	55	15.8	0	1	270	0.00	30.142 
22:20	29.8	29.8	29.8	56	16.0	0	1	270	0.00	30.142 
22:25	29.8	29.8	29.8	56	16.0	0	4	270	0.00	30.141 
22:30	29.7	29.7	29.7	56	15.9	0	2	270	0.00	30.140 
22:35	29.5	29.5	29.5	57	16.2	0	3	270	0.00	30.139 
22:40	29.4	29.4	29.4	58	16.5	0	2	292	0.00	30.140 
22:45	29.3	29.3	29.3	58	16.4	0	2	315	0.00	30.140 
22:50	29.3	29.3	29.3	59	16.8	0	2	315	0.00	30.140 
22:55	29.1	29.1	29.1	60	17.0	0	2	315	0.00	30.140 
23:00	29.0	29.0	29.0	61	17.3	0	2	315	0.00	30.139 
23:05	28.8	28.8	28.8	61	17.1	0	1	315	0.00	30.137 
23:10	28.7	28.7	28.7	61	17.0	0	2	315	0.00	30.137 
23:15	28.5	28.5	28.5	62	17.2	0	1	315	0.00	30.137 
23:20	28.4	28.4	28.4	62	17.1	0	1	315	0.00	30.139 
23:25	28.2	28.2	28.2	62	16.9	0	1	315	0.00	30.138 
23:30	28.1	28.1	28.1	62	16.8	0	1	315	0.00	30.139 
23:35	27.9	27.9	27.9	62	16.6	0	1	315	0.00	30.140 
23:40	27.9	27.9	27.9	62	16.6	0	1	315	0.00	30.139 
23:45	27.8	27.8	27.8	62	16.5	0	3	270	0.00	30.138 
23:50	27.8	27.8	27.8	62	16.5	0	2	270	0.00	30.137 
23:55	27.6	27.6	27.6	62	16.3	0	1	270	0.00	30.134 

CoCoRaHS
IN-AL-39
A2 Web Hosting
Creative Commons License
GoDaddy
Look for:

loaded 2017-10-19 19:49:53 • last modified 2010-11-18 10:43:29
Privacy PolicyDisclaimer
• wx.awcolley.com is powered by PmWiki v.2002016 •
• all content (unless otherwise noted) © 2017 A W Colley